DLH1W8 EDDF-EDDH
Flight info
| Callsign | DLH1W8 |
|---|---|
| Flight time | N/A |
| Altitude | 31000 |
| Route | MARUN6E/07C MARUN Y150 TOLGI DCT SAS/N0445F300 P605 NOLGO NOLGO2S |
| Aircraft | A320/M-SDE3FGHIRWY/LB1 |
Departure
| Time | 2026-04-14 16:36 |
|---|---|
| Airport | Frankfurt Main Airport (EDDF) |
Arrival
| Time | N/A |
|---|---|
| Airport | Hamburg Helmut Schmidt Airport (EDDH) |
| Time | Latitude | Longitude | Altitude | Speed | Heading |
|---|---|---|---|---|---|
| 2026-04-14 15:54 | 50.04686 | 8.56703 | 369 ft | 0 kts | 117° |
| 2026-04-14 16:19 | 50.04688 | 8.56696 | 372 ft | 3 kts | 117° |
| 2026-04-14 16:20 | 50.04699 | 8.56673 | 368 ft | 2 kts | 149° |
| 2026-04-14 16:20 | 50.04713 | 8.56662 | 367 ft | 2 kts | 163° |
| 2026-04-14 16:20 | 50.04729 | 8.56655 | 367 ft | 2 kts | 178° |
| 2026-04-14 16:20 | 50.04742 | 8.56654 | 369 ft | 0 kts | 182° |
| 2026-04-14 16:21 | 50.04756 | 8.56658 | 367 ft | 3 kts | 203° |
| 2026-04-14 16:21 | 50.04764 | 8.56663 | 367 ft | 0 kts | 203° |
| 2026-04-14 16:26 | 50.04753 | 8.56650 | 369 ft | 6 kts | 221° |
| 2026-04-14 16:26 | 50.04723 | 8.56568 | 368 ft | 9 kts | 249° |
| 2026-04-14 16:26 | 50.04701 | 8.56476 | 373 ft | 10 kts | 250° |
| 2026-04-14 16:27 | 50.04676 | 8.56374 | 370 ft | 10 kts | 249° |
| 2026-04-14 16:27 | 50.04648 | 8.56260 | 367 ft | 14 kts | 249° |
| 2026-04-14 16:27 | 50.04615 | 8.56120 | 364 ft | 12 kts | 250° |
| 2026-04-14 16:27 | 50.04595 | 8.56037 | 371 ft | 5 kts | 250° |
| 2026-04-14 16:28 | 50.04553 | 8.55976 | 364 ft | 16 kts | 207° |
| 2026-04-14 16:28 | 50.04465 | 8.55929 | 355 ft | 5 kts | 197° |
| 2026-04-14 16:28 | 50.04416 | 8.55911 | 358 ft | 7 kts | 186° |
| 2026-04-14 16:28 | 50.04378 | 8.55915 | 360 ft | 6 kts | 169° |
| 2026-04-14 16:29 | 50.04328 | 8.55940 | 361 ft | 7 kts | 161° |
| 2026-04-14 16:29 | 50.04271 | 8.55959 | 361 ft | 10 kts | 184° |
| 2026-04-14 16:29 | 50.04194 | 8.55921 | 352 ft | 6 kts | 174° |
| 2026-04-14 16:29 | 50.04192 | 8.55921 | 352 ft | 0 kts | 173° |
| 2026-04-14 16:31 | 50.04158 | 8.55936 | 359 ft | 9 kts | 161° |
| 2026-04-14 16:31 | 50.04101 | 8.55968 | 353 ft | 7 kts | 162° |
| 2026-04-14 16:32 | 50.04058 | 8.55957 | 351 ft | 5 kts | 213° |
| 2026-04-14 16:32 | 50.04039 | 8.55909 | 354 ft | 7 kts | 250° |
| 2026-04-14 16:32 | 50.04019 | 8.55828 | 358 ft | 8 kts | 248° |
| 2026-04-14 16:32 | 50.04001 | 8.55754 | 354 ft | 8 kts | 253° |
| 2026-04-14 16:33 | 50.03968 | 8.55613 | 356 ft | 18 kts | 250° |
| 2026-04-14 16:33 | 50.03928 | 8.55446 | 356 ft | 15 kts | 251° |
| 2026-04-14 16:33 | 50.03892 | 8.55290 | 358 ft | 15 kts | 249° |
| 2026-04-14 16:33 | 50.03856 | 8.55138 | 353 ft | 15 kts | 249° |
| 2026-04-14 16:34 | 50.03820 | 8.54990 | 351 ft | 15 kts | 250° |
| 2026-04-14 16:34 | 50.03784 | 8.54845 | 349 ft | 13 kts | 249° |
| 2026-04-14 16:34 | 50.03746 | 8.54733 | 352 ft | 11 kts | 221° |
| 2026-04-14 16:34 | 50.03679 | 8.54719 | 347 ft | 10 kts | 165° |
| 2026-04-14 16:35 | 50.03618 | 8.54753 | 352 ft | 8 kts | 159° |
| 2026-04-14 16:35 | 50.03586 | 8.54804 | 350 ft | 6 kts | 96° |
| 2026-04-14 16:35 | 50.03591 | 8.54832 | 347 ft | 0 kts | 71° |
| 2026-04-14 16:35 | 50.03593 | 8.54839 | 355 ft | 5 kts | 70° |
| 2026-04-14 16:36 | 50.03688 | 8.55236 | 349 ft | 76 kts | 70° |
| 2026-04-14 16:36 | 50.03945 | 8.56320 | 359 ft | 135 kts | 69° |
| 2026-04-14 16:36 | 50.04334 | 8.57892 | 534 ft | 163 kts | 69° |
| 2026-04-14 16:36 | 50.04710 | 8.59516 | 1352 ft | 162 kts | 69° |
| 2026-04-14 16:37 | 50.05104 | 8.61220 | 1922 ft | 178 kts | 68° |
| 2026-04-14 16:37 | 50.05771 | 8.62965 | 2244 ft | 202 kts | 37° |
| 2026-04-14 16:37 | 50.07147 | 8.63690 | 2579 ft | 224 kts | 359° |
| 2026-04-14 16:37 | 50.08792 | 8.63562 | 3042 ft | 247 kts | 357° |
| 2026-04-14 16:38 | 50.10542 | 8.63411 | 3825 ft | 255 kts | 357° |
| 2026-04-14 16:38 | 50.12333 | 8.63269 | 4643 ft | 263 kts | 357° |
| 2026-04-14 16:38 | 50.14174 | 8.63133 | 4926 ft | 265 kts | 358° |
| 2026-04-14 16:38 | 50.16019 | 8.63007 | 5004 ft | 265 kts | 358° |
| 2026-04-14 16:39 | 50.17864 | 8.62883 | 5007 ft | 265 kts | 358° |
| 2026-04-14 16:39 | 50.19707 | 8.62757 | 5037 ft | 267 kts | 358° |
| 2026-04-14 16:39 | 50.21574 | 8.62629 | 5825 ft | 269 kts | 358° |
| 2026-04-14 16:39 | 50.23458 | 8.62504 | 6700 ft | 273 kts | 358° |
| 2026-04-14 16:40 | 50.25379 | 8.62377 | 7463 ft | 280 kts | 357° |